Time;durP1;ratioP1;P1;durP2;ratioP2;P2;SDS_P1;SDS_P2;PMS_P1;PMS_P2;Temp;Humidity;BMP_temperature;BMP_pressure;BME280_temperature;BME280_humidity;BME280_pressure;Samples;Min_cycle;Max_cycle;Signal;HPM_P1;HPM_P2
2022/01/10 00:01:39;;;;;;;15.45;2.33;;;10.10;99.90;;;;;;5054612;28;20029;-84
2022/01/10 00:04:05;;;;;;;16.33;2.63;;;10.10;99.90;;;;;;5054268;28;20049;-84
2022/01/10 00:06:32;;;;;;;16.63;2.58;;;10.10;99.90;;;;;;5054572;28;20029;-83
2022/01/10 00:08:58;;;;;;;18.50;3.23;;;10.10;99.90;;;;;;5054538;28;20116;-84
2022/01/10 00:11:24;;;;;;;13.13;2.67;;;10.20;99.90;;;;;;5054433;28;20104;-85
2022/01/10 00:13:51;;;;;;;18.00;2.42;;;10.20;99.90;;;;;;5054589;28;20119;-85
2022/01/10 00:16:17;;;;;;;19.33;2.95;;;10.20;99.90;;;;;;5054539;28;20117;-84
2022/01/10 00:18:43;;;;;;;13.33;2.47;;;10.30;99.90;;;;;;5054618;28;20437;-84
2022/01/10 00:21:09;;;;;;;18.65;2.45;;;10.30;99.90;;;;;;5054455;28;20274;-84
2022/01/10 00:23:36;;;;;;;24.37;3.17;;;10.30;99.90;;;;;;5054191;28;20055;-85
2022/01/10 00:26:02;;;;;;;19.25;2.63;;;10.40;99.90;;;;;;5054156;28;20044;-84
2022/01/10 00:28:28;;;;;;;16.33;2.60;;;10.40;99.90;;;;;;5054397;28;20484;-85
2022/01/10 00:30:54;;;;;;;17.20;2.50;;;10.40;99.90;;;;;;5054123;28;20029;-84
2022/01/10 00:33:20;;;;;;;22.02;2.45;;;10.50;99.90;;;;;;5054434;28;20083;-84
2022/01/10 00:35:47;;;;;;;14.70;3.08;;;10.40;99.90;;;;;;5054115;28;20029;-84
2022/01/10 00:38:13;;;;;;;8.52;1.58;;;10.40;99.90;;;;;;5053659;28;20037;-84
2022/01/10 00:40:40;;;;;;;7.25;1.92;;;10.20;99.90;;;;;;5053572;28;20052;-83
2022/01/10 00:43:08;;;;;;;15.80;1.90;;;10.20;99.90;;;;;;5053410;28;20458;-84
2022/01/10 00:45:34;;;;;;;10.23;1.85;;;10.20;99.90;;;;;;5053459;28;20120;-84
2022/01/10 00:48:01;;;;;;;11.07;1.50;;;10.20;99.90;;;;;;5053833;28;20070;-84
2022/01/10 00:50:29;;;;;;;18.25;2.63;;;10.20;99.90;;;;;;5053702;28;20483;-84
2022/01/10 00:52:55;;;;;;;13.88;2.13;;;10.20;99.90;;;;;;5053490;28;20025;-83
2022/01/10 00:55:22;;;;;;;4.65;1.30;;;10.10;99.90;;;;;;5053802;28;20363;-85
2022/01/10 00:57:48;;;;;;;3.28;0.80;;;9.90;99.90;;;;;;5053544;28;20025;-84
2022/01/10 01:00:16;;;;;;;1.58;0.60;;;9.30;99.90;;;;;;5053576;28;20016;-84
2022/01/10 01:02:42;;;;;;;4.80;0.80;;;8.80;99.90;;;;;;5053297;28;20056;-84
2022/01/10 01:05:12;;;;;;;1.73;0.60;;;8.50;99.90;;;;;;5053233;28;20025;-83
2022/01/10 01:07:39;;;;;;;3.67;0.80;;;8.30;99.90;;;;;;5053567;28;20108;-83
2022/01/10 01:12:55;;;;;;;1.58;0.40;;;8.20;99.90;;;;;;5053377;28;19909;-84
2022/01/10 01:15:30;;;;;;;1.98;0.50;;;8.20;99.90;;;;;;5052969;28;20456;-84
2022/01/10 01:26:03;;;;;;;2.58;0.50;;;8.30;99.90;;;;;;5052984;28;20126;-84
2022/01/10 01:28:30;;;;;;;1.70;0.60;;;8.20;99.90;;;;;;5052794;28;20114;-84
2022/01/10 01:30:57;;;;;;;0.82;0.40;;;8.30;99.90;;;;;;5052952;28;20091;-84
2022/01/10 01:33:24;;;;;;;0.83;0.40;;;8.30;99.90;;;;;;5053211;28;20039;-84
2022/01/10 01:35:52;;;;;;;3.63;0.88;;;8.30;99.90;;;;;;5052638;28;20271;-84
2022/01/10 01:38:18;;;;;;;1.08;0.47;;;8.30;99.90;;;;;;5052928;28;20412;-84
2022/01/10 01:41:17;;;;;;;3.85;0.52;;;8.30;99.90;;;;;;5052690;28;20036;-84
2022/01/10 01:43:33;;;;;;;1.90;0.50;;;8.30;99.90;;;;;;5051011;28;20032;-84
2022/01/10 01:45:59;;;;;;;2.13;0.52;;;8.40;99.90;;;;;;5052444;28;20426;-84
2022/01/10 01:48:25;;;;;;;2.60;0.65;;;8.30;99.90;;;;;;5034651;28;20132;-84
2022/01/10 01:50:51;;;;;;;1.58;0.43;;;8.30;99.90;;;;;;5052294;28;20020;-84
2022/01/10 01:53:17;;;;;;;2.13;0.70;;;8.50;99.90;;;;;;5052549;28;20067;-84
2022/01/10 01:55:45;;;;;;;2.10;0.70;;;8.40;99.90;;;;;;5051022;28;20477;-84
2022/01/10 01:58:11;;;;;;;3.22;0.70;;;8.50;99.90;;;;;;5052138;28;20017;-84
2022/01/10 02:00:37;;;;;;;3.33;0.65;;;8.50;99.90;;;;;;5052536;28;20477;-84
2022/01/10 02:03:03;;;;;;;1.45;0.60;;;8.50;99.90;;;;;;5051961;28;20053;-84
2022/01/10 02:05:29;;;;;;;3.10;0.57;;;8.60;99.90;;;;;;5052287;28;20033;-85
2022/01/10 02:07:56;;;;;;;3.03;0.60;;;8.70;99.90;;;;;;5052092;28;20079;-84
2022/01/10 02:10:22;;;;;;;2.42;0.60;;;8.70;99.90;;;;;;5052101;28;20031;-84
2022/01/10 02:12:48;;;;;;;1.95;0.57;;;8.70;99.90;;;;;;5052046;28;20025;-84
2022/01/10 02:15:49;;;;;;;2.45;0.60;;;8.70;99.90;;;;;;5052178;28;20021;-84
2022/01/10 02:18:19;;;;;;;2.22;0.75;;;8.80;99.90;;;;;;5051715;28;20123;-84
2022/01/10 02:20:46;;;;;;;2.35;0.52;;;8.80;99.90;;;;;;5051993;28;20088;-84
2022/01/10 02:23:14;;;;;;;6.28;1.48;;;8.90;99.90;;;;;;5052205;28;20029;-84
2022/01/10 02:25:42;;;;;;;4.85;0.88;;;8.90;99.90;;;;;;5052308;28;20445;-85
2022/01/10 02:28:09;;;;;;;3.42;0.60;;;8.90;99.90;;;;;;5051910;28;20403;-84
2022/01/10 02:30:35;;;;;;;4.10;0.55;;;8.90;99.90;;;;;;5051798;28;20385;-84
2022/01/10 02:33:03;;;;;;;2.23;0.50;;;8.90;99.90;;;;;;5052185;28;20021;-84
2022/01/10 02:35:40;;;;;;;3.33;0.50;;;8.90;99.90;;;;;;5051470;28;20361;-84
2022/01/10 02:38:06;;;;;;;;;;;8.90;99.90;;;;;;5051992;28;20017;-85
2022/01/10 02:40:33;;;;;;;3.97;0.60;;;8.80;99.90;;;;;;5051478;28;19936;-84
2022/01/10 02:43:05;;;;;;;2.92;0.60;;;8.80;99.90;;;;;;5051683;28;20123;-84
2022/01/10 02:45:31;;;;;;;4.43;0.52;;;8.80;99.90;;;;;;5051607;28;20025;-84
2022/01/10 02:47:57;;;;;;;4.38;0.90;;;8.80;99.90;;;;;;5051344;28;20534;-84
2022/01/10 02:50:24;;;;;;;4.78;0.80;;;8.90;99.90;;;;;;5051149;28;20113;-84
2022/01/10 02:52:50;;;;;;;5.10;1.05;;;8.90;99.90;;;;;;5051182;28;20383;-84
2022/01/10 02:55:17;;;;;;;4.32;0.82;;;9.00;99.90;;;;;;5051177;28;20017;-84
2022/01/10 02:57:43;;;;;;;1.30;0.50;;;9.00;99.90;;;;;;5051209;28;20037;-82
2022/01/10 03:00:19;;;;;;;2.00;0.40;;;9.10;99.90;;;;;;5033183;28;20025;-84
2022/01/10 03:02:49;;;;;;;4.07;0.60;;;8.90;99.90;;;;;;5048857;28;20056;-84
2022/01/10 03:05:15;;;;;;;5.00;0.75;;;8.70;99.90;;;;;;5051216;28;20040;-84
2022/01/10 03:07:42;;;;;;;5.38;0.80;;;8.70;99.90;;;;;;5050846;28;20025;-84
2022/01/10 03:10:08;;;;;;;1.70;0.50;;;8.60;99.90;;;;;;5051598;28;20109;-84
2022/01/10 03:12:36;;;;;;;3.42;0.70;;;8.60;99.90;;;;;;5051128;28;20100;-83
2022/01/10 03:15:04;;;;;;;1.60;0.52;;;8.60;99.90;;;;;;5050924;28;20058;-84
2022/01/10 03:17:30;;;;;;;4.10;0.55;;;8.50;99.90;;;;;;5051240;28;20068;-84
2022/01/10 03:20:05;;;;;;;3.88;0.65;;;8.50;99.90;;;;;;5051115;28;20029;-84
2022/01/10 03:22:32;;;;;;;3.80;0.50;;;8.40;99.90;;;;;;5050381;28;20032;-84
2022/01/10 03:24:58;;;;;;;3.65;1.20;;;8.40;99.90;;;;;;5050674;28;20500;-84
2022/01/10 03:27:25;;;;;;;2.72;0.60;;;8.40;99.90;;;;;;5050985;28;20108;-84
2022/01/10 03:29:51;;;;;;;3.33;0.52;;;8.50;99.90;;;;;;5050740;28;20120;-84
2022/01/10 03:32:17;;;;;;;3.78;0.60;;;8.50;99.90;;;;;;5050349;28;20021;-84
2022/01/10 03:34:44;;;;;;;3.83;0.60;;;8.60;99.90;;;;;;5050847;28;20036;-85
2022/01/10 03:37:10;;;;;;;3.42;0.60;;;8.60;99.90;;;;;;5050724;28;20444;-84
2022/01/10 03:39:37;;;;;;;4.60;0.63;;;8.70;99.90;;;;;;5050751;28;20029;-84
2022/01/10 03:42:04;;;;;;;5.25;0.82;;;8.70;99.90;;;;;;5050713;28;20029;-84
2022/01/10 03:44:30;;;;;;;4.80;0.90;;;8.70;99.90;;;;;;5050658;28;20056;-84
2022/01/10 03:46:57;;;;;;;3.50;0.60;;;8.70;99.90;;;;;;5051052;28;20077;-84
2022/01/10 03:49:24;;;;;;;4.03;0.70;;;8.80;99.90;;;;;;5050356;28;20024;-83
2022/01/10 03:51:50;;;;;;;;;;;8.80;99.90;;;;;;5050911;28;20036;-84
2022/01/10 03:54:16;;;;;;;9.68;1.35;;;8.90;99.90;;;;;;5050431;28;19912;-83
2022/01/10 03:56:42;;;;;;;5.25;0.80;;;8.90;99.90;;;;;;5050992;28;20046;-84
2022/01/10 03:59:08;;;;;;;5.32;0.80;;;9.00;99.90;;;;;;5051256;28;20052;-84
2022/01/10 04:01:38;;;;;;;3.63;0.70;;;9.00;99.90;;;;;;5051190;28;20025;-83
2022/01/10 04:04:10;;;;;;;5.65;0.70;;;8.90;99.90;;;;;;5050751;28;20069;-78
2022/01/10 04:06:36;;;;;;;8.25;1.08;;;8.70;99.90;;;;;;5032695;28;20037;-83
2022/01/10 04:09:03;;;;;;;11.68;1.30;;;8.70;99.90;;;;;;5051526;28;20048;-83
2022/01/10 04:11:30;;;;;;;5.68;1.30;;;8.70;99.90;;;;;;5051077;28;20044;-83
2022/01/10 04:13:56;;;;;;;5.45;1.08;;;8.50;99.90;;;;;;5051483;28;20104;-83
2022/01/10 04:16:22;;;;;;;1.98;0.70;;;8.60;99.90;;;;;;5051674;28;20495;-83
2022/01/10 04:18:51;;;;;;;8.52;0.90;;;8.50;99.90;;;;;;5053086;28;20025;-84
2022/01/10 04:21:17;;;;;;;3.45;0.90;;;8.50;99.90;;;;;;5055783;28;20033;-83
2022/01/10 04:23:43;;;;;;;4.22;1.00;;;8.50;99.90;;;;;;5055080;28;20021;-83
2022/01/10 04:26:09;;;;;;;4.03;0.90;;;8.60;99.90;;;;;;5055346;28;20420;-84
2022/01/10 04:28:35;;;;;;;4.00;0.80;;;8.50;99.90;;;;;;5055893;28;20048;-84
2022/01/10 04:31:03;;;;;;;8.75;0.70;;;8.30;99.90;;;;;;5055549;28;20485;-84
2022/01/10 04:33:30;;;;;;;5.13;0.70;;;8.20;99.90;;;;;;5055107;28;20496;-84
2022/01/10 04:35:58;;;;;;;5.28;1.33;;;8.30;99.90;;;;;;5055222;28;20079;-84
2022/01/10 04:38:24;;;;;;;3.40;0.75;;;8.30;99.90;;;;;;5055690;28;20469;-83
2022/01/10 04:40:51;;;;;;;3.85;0.70;;;8.30;99.90;;;;;;5055650;28;20025;-85
2022/01/10 04:43:17;;;;;;;1.87;0.30;;;8.30;99.90;;;;;;5055153;28;20029;-84
2022/01/10 04:45:43;;;;;;;2.83;0.68;;;8.30;99.90;;;;;;5054985;28;20287;-84
2022/01/10 04:48:09;;;;;;;3.83;0.50;;;8.20;99.90;;;;;;5055151;28;20330;-84
2022/01/10 04:53:02;;;;;;;4.07;0.70;;;8.00;99.90;;;;;;5054921;28;20029;-84
2022/01/10 04:55:28;;;;;;;3.47;0.52;;;7.90;99.90;;;;;;5054692;28;20051;-85
2022/01/10 04:57:54;;;;;;;3.83;0.60;;;7.80;99.90;;;;;;5055303;28;20112;-84
2022/01/10 05:00:20;;;;;;;4.13;0.68;;;7.90;99.90;;;;;;5054823;28;20037;-85
2022/01/10 05:02:49;;;;;;;1.52;0.40;;;7.90;99.90;;;;;;5054572;28;20499;-85
2022/01/10 05:05:15;;;;;;;3.40;0.60;;;7.80;99.90;;;;;;5054578;28;20048;-84
2022/01/10 05:07:42;;;;;;;3.47;0.75;;;7.80;99.90;;;;;;5054816;28;20492;-85
2022/01/10 05:10:08;;;;;;;1.15;0.60;;;7.80;99.90;;;;;;5054657;28;20496;-85
2022/01/10 05:12:34;;;;;;;2.28;0.50;;;7.70;99.90;;;;;;5054671;28;20021;-85
2022/01/10 05:15:00;;;;;;;1.90;0.50;;;7.60;99.90;;;;;;5036667;28;20427;-84
2022/01/10 05:17:26;;;;;;;2.10;0.40;;;7.60;99.90;;;;;;5055251;28;20041;-84
2022/01/10 05:19:52;;;;;;;3.30;0.67;;;7.50;99.90;;;;;;5055437;28;20021;-84
2022/01/10 05:22:19;;;;;;;5.13;1.00;;;7.50;99.90;;;;;;5054841;28;20104;-84
2022/01/10 05:24:45;;;;;;;2.05;0.50;;;7.40;99.90;;;;;;5054715;28;20025;-84
2022/01/10 05:27:11;;;;;;;4.78;0.85;;;7.40;99.90;;;;;;5054918;28;20028;-85
2022/01/10 05:29:37;;;;;;;3.85;0.90;;;7.30;99.90;;;;;;5054721;28;20404;-85
2022/01/10 05:32:03;;;;;;;2.40;0.70;;;7.30;99.90;;;;;;5054858;28;20438;-84
2022/01/10 05:34:30;;;;;;;2.78;0.80;;;7.40;99.90;;;;;;5054831;28;20369;-84
2022/01/10 05:36:56;;;;;;;5.00;0.68;;;7.40;99.90;;;;;;5054924;28;20017;-84
2022/01/10 05:39:22;;;;;;;3.25;1.02;;;7.40;99.90;;;;;;5054340;28;20448;-84
2022/01/10 05:41:48;;;;;;;1.67;0.50;;;7.40;99.90;;;;;;5036403;28;20040;-84
2022/01/10 05:44:14;;;;;;;3.88;0.88;;;7.40;99.90;;;;;;5054914;28;20025;-85
2022/01/10 05:46:43;;;;;;;1.85;0.70;;;7.40;99.90;;;;;;5053944;28;20065;-85
2022/01/10 05:49:12;;;;;;;2.20;0.90;;;7.40;99.90;;;;;;5054626;28;20441;-86
2022/01/10 05:51:39;;;;;;;1.75;0.63;;;7.50;99.90;;;;;;5054087;28;20401;-85
2022/01/10 05:54:07;;;;;;;4.40;0.88;;;7.50;99.90;;;;;;5054816;28;20032;-85
2022/01/10 05:56:34;;;;;;;2.33;0.73;;;7.50;99.90;;;;;;5054314;28;20024;-86
2022/01/10 05:59:00;;;;;;;;;;;7.40;99.90;;;;;;5054448;28;20033;-86
2022/01/10 06:01:26;;;;;;;2.97;0.90;;;7.40;99.90;;;;;;5054034;28;19905;-86
2022/01/10 06:03:53;;;;;;;5.22;1.98;;;7.40;99.90;;;;;;5053429;28;20339;-82
2022/01/10 06:06:19;;;;;;;3.92;1.20;;;7.40;99.90;;;;;;5049878;28;20033;-80
2022/01/10 06:08:46;;;;;;;5.43;1.40;;;7.40;99.90;;;;;;5052705;28;20096;-81
2022/01/10 06:11:12;;;;;;;3.30;1.10;;;7.40;99.90;;;;;;5050707;28;20124;-82
2022/01/10 06:13:38;;;;;;;4.13;1.25;;;7.50;99.90;;;;;;5051993;28;20028;-82
2022/01/10 06:16:05;;;;;;;6.30;1.02;;;7.60;99.90;;;;;;5049301;28;20059;-82
2022/01/10 06:18:31;;;;;;;2.55;0.80;;;7.60;99.90;;;;;;5051696;28;20061;-82
2022/01/10 06:20:57;;;;;;;3.92;1.15;;;7.60;99.90;;;;;;5051624;28;20090;-81
2022/01/10 06:23:25;;;;;;;6.77;1.20;;;7.70;99.90;;;;;;5052635;28;20028;-81
2022/01/10 06:25:51;;;;;;;4.53;1.05;;;7.80;99.90;;;;;;5051587;28;20028;-82
2022/01/10 06:28:18;;;;;;;3.60;1.15;;;7.80;99.90;;;;;;5052495;28;20480;-82
2022/01/10 06:30:45;;;;;;;6.28;1.10;;;7.80;99.90;;;;;;5052280;28;20485;-82
2022/01/10 06:33:11;;;;;;;4.35;1.10;;;7.90;99.90;;;;;;5034911;28;20048;-81
2022/01/10 06:35:37;;;;;;;8.73;1.23;;;8.00;99.90;;;;;;5032289;28;20048;-82
2022/01/10 06:38:04;;;;;;;10.03;1.37;;;8.00;99.90;;;;;;5053152;28;20037;-82
2022/01/10 06:40:30;;;;;;;4.70;1.05;;;8.10;99.90;;;;;;5053361;28;20272;-82
2022/01/10 06:42:57;;;;;;;7.57;1.20;;;8.20;99.90;;;;;;5052689;28;20428;-81
2022/01/10 06:45:23;;;;;;;4.63;1.05;;;8.10;99.90;;;;;;5052777;28;20029;-81
2022/01/10 06:47:50;;;;;;;3.53;0.90;;;8.00;99.90;;;;;;5052913;28;20065;-81
2022/01/10 06:50:16;;;;;;;5.57;1.23;;;8.00;99.90;;;;;;5053099;28;20028;-81
2022/01/10 06:52:42;;;;;;;7.82;0.90;;;7.90;99.90;;;;;;5052536;28;20174;-82
2022/01/10 06:55:09;;;;;;;3.53;0.83;;;7.90;99.90;;;;;;5052595;28;20040;-81
2022/01/10 06:57:35;;;;;;;7.93;1.10;;;7.90;99.90;;;;;;5034597;28;20268;-80
2022/01/10 07:00:04;;;;;;;4.07;0.93;;;8.10;99.90;;;;;;5052513;28;20385;-82
2022/01/10 07:02:33;;;;;;;4.82;0.70;;;8.60;99.90;;;;;;5052412;28;20048;-82
2022/01/10 07:04:59;;;;;;;3.92;0.70;;;9.20;99.90;;;;;;5053561;28;20124;-82
2022/01/10 07:07:25;;;;;;;3.75;0.90;;;9.80;99.90;;;;;;5052668;28;20107;-83
2022/01/10 07:09:51;;;;;;;3.22;0.82;;;10.60;99.90;;;;;;5052245;28;20112;-82
2022/01/10 07:12:32;;;;;;;4.85;0.80;;;11.50;99.90;;;;;;5052701;28;20445;-83
2022/01/10 07:14:58;;;;;;;3.58;0.75;;;12.40;99.90;;;;;;5052410;28;20120;-83
2022/01/10 07:17:24;;;;;;;4.40;0.80;;;13.10;99.90;;;;;;5052318;28;20037;-85
2022/01/10 07:19:51;;;;;;;2.83;0.90;;;13.80;99.90;;;;;;5034356;28;20025;-84
2022/01/10 07:22:17;;;;;;;7.90;1.30;;;14.00;99.90;;;;;;5052851;28;20473;-82
2022/01/10 07:24:43;;;;;;;7.05;1.20;;;14.30;99.90;;;;;;5052719;28;20370;-81
2022/01/10 07:27:09;;;;;;;3.13;1.10;;;15.00;99.90;;;;;;5052575;28;20033;-81
2022/01/10 07:29:35;;;;;;;4.17;1.00;;;15.70;99.90;;;;;;5052350;28;20120;-80
2022/01/10 07:32:01;;;;;;;3.10;1.00;;;16.10;97.70;;;;;;5052201;28;20266;-81
2022/01/10 07:34:27;;;;;;;2.90;1.00;;;16.20;97.30;;;;;;5033640;28;20268;-80
2022/01/10 07:36:53;;;;;;;2.97;0.80;;;16.00;95.70;;;;;;5052512;28;20025;-81
2022/01/10 07:39:19;;;;;;;3.30;0.90;;;15.50;97.60;;;;;;5052280;28;20032;-79
2022/01/10 07:41:46;;;;;;;3.20;0.90;;;15.20;97.40;;;;;;5052356;28;20027;-78
2022/01/10 07:44:12;;;;;;;4.97;1.15;;;15.20;97.10;;;;;;5052774;28;20028;-79
2022/01/10 07:46:39;;;;;;;8.52;1.17;;;15.20;97.20;;;;;;5052291;28;20103;-79
2022/01/10 07:49:05;;;;;;;19.30;2.10;;;15.60;97.40;;;;;;5051883;28;20021;-79
2022/01/10 07:51:31;;;;;;;4.15;1.02;;;15.90;96.70;;;;;;5052239;28;20025;-78
2022/01/10 07:53:59;;;;;;;6.35;1.20;;;16.00;95.80;;;;;;5053693;28;20433;-79
2022/01/10 07:56:25;;;;;;;7.03;1.40;;;15.80;95.10;;;;;;5056286;28;20364;-79
2022/01/10 07:58:52;;;;;;;5.55;1.80;;;15.60;96.50;;;;;;5055685;28;20429;-78
2022/01/10 08:01:20;;;;;;;5.13;1.33;;;15.20;97.10;;;;;;5055902;28;20029;-79
2022/01/10 08:03:50;;;;;;;6.82;1.50;;;15.10;97.40;;;;;;5055818;28;20078;-79
2022/01/10 08:06:20;;;;;;;5.30;1.67;;;14.90;97.50;;;;;;5055485;28;20113;-77
2022/01/10 08:08:48;;;;;;;5.82;1.50;;;14.50;97.60;;;;;;5055113;28;20029;-75
2022/01/10 08:11:16;;;;;;;12.40;1.17;;;14.30;97.90;;;;;;5055181;28;20029;-77
2022/01/10 08:13:43;;;;;;;6.45;1.20;;;14.10;98.00;;;;;;5055204;28;20013;-78
2022/01/10 08:16:09;;;;;;;7.93;0.85;;;14.00;98.30;;;;;;5055102;28;20032;-79
2022/01/10 08:18:36;;;;;;;5.78;0.98;;;13.80;97.70;;;;;;5037339;28;20500;-78
2022/01/10 08:21:03;;;;;;;8.63;1.50;;;13.70;98.70;;;;;;5055483;28;20037;-79
2022/01/10 08:23:29;;;;;;;9.75;1.20;;;13.80;98.40;;;;;;5037175;28;20380;-76
2022/01/10 08:25:56;;;;;;;7.60;2.33;;;13.70;98.10;;;;;;5055486;28;20033;-82
2022/01/10 08:28:22;;;;;;;7.70;1.63;;;13.20;98.90;;;;;;5055013;28;20029;-78
2022/01/10 08:30:49;;;;;;;8.57;1.20;;;13.00;99.30;;;;;;5055028;28;20033;-77
2022/01/10 08:33:15;;;;;;;6.43;1.08;;;12.60;99.60;;;;;;5055041;28;20025;-77
2022/01/10 08:35:41;;;;;;;4.63;1.03;;;11.60;99.90;;;;;;5055578;28;20019;-79
2022/01/10 08:38:07;;;;;;;6.07;1.00;;;11.10;99.90;;;;;;5055083;28;20017;-78
2022/01/10 08:40:33;;;;;;;5.57;1.20;;;10.10;99.90;;;;;;5054982;28;20025;-77
2022/01/10 08:43:02;;;;;;;5.43;1.02;;;9.90;99.90;;;;;;5055365;28;20271;-76
2022/01/10 08:45:28;;;;;;;5.25;1.25;;;9.80;99.90;;;;;;5055365;28;20092;-76
2022/01/10 08:47:54;;;;;;;3.85;0.88;;;10.10;99.90;;;;;;5055071;28;20037;-76
2022/01/10 08:50:23;;;;;;;4.28;1.30;;;10.40;99.90;;;;;;5054819;28;20171;-78
2022/01/10 08:52:49;;;;;;;5.28;1.20;;;10.50;99.90;;;;;;5054812;28;20029;-77
2022/01/10 08:55:15;;;;;;;3.58;0.90;;;10.70;99.90;;;;;;5054521;28;20055;-77
2022/01/10 08:57:41;;;;;;;7.70;1.20;;;11.00;99.90;;;;;;5054462;28;20060;-78
2022/01/10 09:00:08;;;;;;;7.95;1.13;;;10.90;99.90;;;;;;5054402;28;20044;-77
2022/01/10 09:02:35;;;;;;;7.80;1.27;;;10.90;99.90;;;;;;5054060;28;20025;-77
2022/01/10 09:05:01;;;;;;;6.15;1.17;;;10.80;99.90;;;;;;5053402;28;20124;-77
2022/01/10 09:07:27;;;;;;;6.65;1.20;;;10.70;99.90;;;;;;5053923;28;20489;-77
2022/01/10 09:09:53;;;;;;;8.20;1.43;;;10.70;99.90;;;;;;5053945;28;20025;-77
2022/01/10 09:12:19;;;;;;;5.70;1.27;;;10.60;99.90;;;;;;5054071;28;20112;-77
2022/01/10 09:14:45;;;;;;;7.95;1.15;;;10.40;99.90;;;;;;5054152;28;20029;-77
2022/01/10 09:17:11;;;;;;;7.82;0.88;;;10.40;99.90;;;;;;5053085;28;20434;-78
2022/01/10 09:19:38;;;;;;;3.90;0.77;;;10.40;99.90;;;;;;5054282;28;20025;-77
2022/01/10 09:22:04;;;;;;;9.98;1.35;;;10.40;99.90;;;;;;5054505;28;20094;-77
2022/01/10 09:24:30;;;;;;;4.15;0.80;;;10.60;99.90;;;;;;5054121;28;20078;-77
2022/01/10 09:26:57;;;;;;;1.67;0.77;;;10.70;99.90;;;;;;5054130;28;20041;-77
2022/01/10 09:29:24;;;;;;;4.47;1.17;;;10.80;99.90;;;;;;5054872;28;20082;-77
2022/01/10 09:31:50;;;;;;;2.63;0.73;;;10.50;99.90;;;;;;5054136;28;20029;-77
2022/01/10 09:34:16;;;;;;;5.78;1.00;;;10.70;99.90;;;;;;5054528;28;20029;-76
2022/01/10 09:36:42;;;;;;;2.42;0.70;;;10.70;99.90;;;;;;5054696;28;20029;-78
2022/01/10 09:39:09;;;;;;;2.13;0.60;;;10.70;99.90;;;;;;5036155;28;20029;-78
2022/01/10 09:41:35;;;;;;;;;;;10.50;99.90;;;;;;5054579;28;20539;-76
2022/01/10 09:44:04;;;;;;;3.50;0.73;;;10.10;99.90;;;;;;5053932;28;19927;-79
2022/01/10 09:46:32;;;;;;;1.60;0.57;;;10.00;99.90;;;;;;5036002;28;20489;-76
2022/01/10 09:49:01;;;;;;;1.50;0.52;;;10.10;99.90;;;;;;5053840;28;20021;-78
2022/01/10 09:51:29;;;;;;;2.95;0.73;;;10.30;99.90;;;;;;5035470;28;20036;-77
2022/01/10 09:53:57;;;;;;;6.43;0.77;;;10.50;99.90;;;;;;5053701;28;20025;-77
2022/01/10 09:56:24;;;;;;;2.58;0.70;;;10.80;99.90;;;;;;5035186;28;20059;-77
2022/01/10 09:58:52;;;;;;;;;;;10.90;99.90;;;;;;5053830;28;20066;-78
2022/01/10 10:01:19;;;;;;;1.17;0.40;;;11.20;99.90;;;;;;5053012;28;20319;-78
2022/01/10 10:03:47;;;;;;;3.00;0.87;;;11.10;99.90;;;;;;5053039;28;20102;-76
2022/01/10 10:06:15;;;;;;;0.80;0.40;;;11.00;99.90;;;;;;5052969;28;20098;-77
2022/01/10 10:08:41;;;;;;;2.80;0.63;;;10.80;99.90;;;;;;5053131;28;20023;-77
2022/01/10 10:11:08;;;;;;;1.48;0.50;;;10.60;99.90;;;;;;5053048;28;20111;-77
2022/01/10 10:13:52;;;;;;;1.33;0.60;;;10.30;99.90;;;;;;5052705;28;20023;-75
2022/01/10 10:16:19;;;;;;;1.20;0.60;;;10.30;99.90;;;;;;5052521;28;20060;-76
2022/01/10 10:18:47;;;;;;;1.95;0.65;;;10.30;99.90;;;;;;5052759;28;20067;-77
2022/01/10 10:21:18;;;;;;;2.90;0.60;;;10.30;99.90;;;;;;5053008;28;20021;-78
2022/01/10 10:23:50;;;;;;;1.55;0.50;;;10.40;99.90;;;;;;5052813;28;20045;-78
2022/01/10 10:26:21;;;;;;;1.45;0.70;;;10.50;99.90;;;;;;5052521;28;20393;-78
2022/01/10 10:28:50;;;;;;;0.40;0.30;;;10.50;99.90;;;;;;5053045;28;20399;-77
2022/01/10 10:31:31;;;;;;;0.73;0.32;;;10.60;99.90;;;;;;5052930;28;20113;-77
2022/01/10 10:34:02;;;;;;;1.63;0.80;;;10.50;99.90;;;;;;5053002;28;20055;-78
2022/01/10 10:36:31;;;;;;;0.80;0.40;;;10.50;99.90;;;;;;5052405;28;20032;-78
2022/01/10 10:38:59;;;;;;;0.45;0.30;;;10.60;99.90;;;;;;5052428;28;20032;-78
2022/01/10 10:41:25;;;;;;;1.33;0.40;;;10.50;99.90;;;;;;5052273;28;20037;-78
2022/01/10 10:43:54;;;;;;;0.70;0.40;;;10.50;99.90;;;;;;5052323;28;20365;-78
2022/01/10 10:46:24;;;;;;;1.23;0.60;;;10.40;99.90;;;;;;5034552;28;20106;-78
2022/01/10 10:48:53;;;;;;;0.98;0.40;;;10.70;99.90;;;;;;5052314;28;20036;-78
2022/01/10 10:51:19;;;;;;;2.20;0.50;;;11.10;99.90;;;;;;5052196;28;20116;-78
2022/01/10 10:53:46;;;;;;;1.42;0.40;;;11.50;99.90;;;;;;5052425;28;20029;-78
2022/01/10 10:56:12;;;;;;;2.30;0.55;;;11.30;99.90;;;;;;5052753;28;20029;-78
2022/01/10 10:58:42;;;;;;;2.85;0.60;;;10.70;99.90;;;;;;5052231;28;20303;-78
2022/01/10 11:01:08;;;;;;;3.35;0.65;;;10.40;99.90;;;;;;5051974;28;20070;-78
2022/01/10 11:03:34;;;;;;;3.63;0.70;;;10.30;99.90;;;;;;5052014;28;20076;-77
2022/01/10 11:06:03;;;;;;;1.97;0.63;;;10.10;99.90;;;;;;5033976;28;20067;-74
2022/01/10 11:08:33;;;;;;;1.70;0.50;;;10.00;99.90;;;;;;5033867;28;20359;-78
2022/01/10 11:11:00;;;;;;;4.38;0.55;;;10.10;99.90;;;;;;5051705;28;20025;-78
2022/01/10 11:13:27;;;;;;;1.17;0.47;;;10.10;99.90;;;;;;5051794;28;20416;-78
2022/01/10 11:15:55;;;;;;;1.33;0.50;;;10.10;99.90;;;;;;5052722;28;20109;-78
2022/01/10 11:18:22;;;;;;;2.10;0.50;;;10.20;99.90;;;;;;5052673;28;20021;-78
2022/01/10 11:20:51;;;;;;;1.88;0.47;;;10.10;99.90;;;;;;5052647;28;20029;-78
2022/01/10 11:23:18;;;;;;;3.92;1.00;;;9.80;99.90;;;;;;5052068;28;20032;-77
2022/01/10 11:25:45;;;;;;;2.90;0.73;;;10.00;99.90;;;;;;5052645;28;20041;-71
2022/01/10 11:28:21;;;;;;;2.40;0.93;;;10.10;99.90;;;;;;5056122;28;20139;-78
2022/01/10 11:30:49;;;;;;;1.67;0.65;;;10.10;99.90;;;;;;5058798;28;20028;-77
2022/01/10 11:33:22;;;;;;;2.08;0.80;;;10.20;99.90;;;;;;5058734;28;20102;-77
2022/01/10 11:36:00;;;;;;;3.92;1.10;;;10.20;99.90;;;;;;5058747;28;20056;-77
2022/01/10 11:38:36;;;;;;;4.68;1.85;;;10.30;99.90;;;;;;5059088;28;20017;-79
2022/01/10 11:41:10;;;;;;;2.88;0.70;;;10.40;99.90;;;;;;5058851;28;20061;-77
2022/01/10 11:44:10;;;;;;;2.50;0.75;;;10.60;99.90;;;;;;5058602;28;20025;-78
2022/01/10 11:46:44;;;;;;;3.58;1.08;;;11.10;99.90;;;;;;5058936;28;20029;-77
2022/01/10 11:49:13;;;;;;;3.63;0.95;;;11.50;99.90;;;;;;5040256;28;20408;-77
2022/01/10 11:51:42;;;;;;;4.13;1.00;;;11.90;99.90;;;;;;5040154;28;20033;-76
2022/01/10 11:54:14;;;;;;;3.17;0.80;;;12.30;99.90;;;;;;5058411;28;20052;-77
2022/01/10 11:56:51;;;;;;;2.33;0.60;;;12.70;99.90;;;;;;5058668;28;20096;-79
2022/01/10 11:59:36;;;;;;;2.38;0.57;;;12.90;99.90;;;;;;5058209;28;20025;-78
2022/01/10 12:02:05;;;;;;;1.40;0.63;;;12.80;99.90;;;;;;5058110;28;20346;-77
2022/01/10 12:04:42;;;;;;;2.88;0.40;;;12.80;99.90;;;;;;5057897;28;20111;-78
2022/01/10 12:07:13;;;;;;;2.67;0.65;;;12.80;99.90;;;;;;5057922;28;20154;-77
2022/01/10 12:09:47;;;;;;;1.83;0.68;;;12.40;99.90;;;;;;5058343;28;20380;-78
2022/01/10 12:12:16;;;;;;;2.88;1.00;;;12.50;99.90;;;;;;5058532;28;20527;-78
2022/01/10 12:14:42;;;;;;;2.22;0.80;;;12.70;99.90;;;;;;5058003;28;20024;-78
2022/01/10 12:17:09;;;;;;;3.53;1.02;;;12.70;99.90;;;;;;5058144;28;20083;-77
2022/01/10 12:19:36;;;;;;;3.33;0.90;;;12.40;99.90;;;;;;5058972;28;20028;-77
2022/01/10 12:22:06;;;;;;;;;;;12.20;99.90;;;;;;5039907;28;20443;-76
2022/01/10 12:24:33;;;;;;;3.15;0.90;;;12.20;99.90;;;;;;5058170;28;19916;-77
2022/01/10 12:27:01;;;;;;;2.35;0.60;;;12.10;99.90;;;;;;5058375;28;20037;-79
2022/01/10 12:29:31;;;;;;;1.90;0.43;;;12.20;99.90;;;;;;5058340;28;20117;-77
2022/01/10 12:31:58;;;;;;;2.13;0.82;;;12.10;99.90;;;;;;5058286;28;20035;-76
2022/01/10 12:34:24;;;;;;;;;;;12.10;99.90;;;;;;5058666;28;20021;-78
2022/01/10 12:36:50;;;;;;;2.97;0.80;;;12.10;99.90;;;;;;5058165;28;19912;-77
2022/01/10 12:39:24;;;;;;;2.85;0.90;;;11.90;99.90;;;;;;5056353;28;20259;-77
2022/01/10 12:41:51;;;;;;;2.80;0.77;;;11.90;99.90;;;;;;5055270;28;20111;-77
2022/01/10 12:44:18;;;;;;;;;;;11.90;99.90;;;;;;5055511;28;20029;-76
2022/01/10 12:46:44;;;;;;;2.90;0.77;;;11.90;99.90;;;;;;5054712;28;20019;-77
2022/01/10 12:49:13;;;;;;;2.65;0.98;;;12.00;99.90;;;;;;5054626;28;20028;-77
2022/01/10 12:51:51;;;;;;;4.22;0.80;;;12.10;99.90;;;;;;5054248;28;20033;-77
2022/01/10 12:54:23;;;;;;;2.25;0.63;;;12.20;99.90;;;;;;5054492;28;20112;-78
2022/01/10 12:56:50;;;;;;;1.48;0.50;;;12.40;99.90;;;;;;5054983;28;20144;-77
2022/01/10 12:59:22;;;;;;;2.33;0.60;;;12.50;99.90;;;;;;5054543;28;20103;-77
2022/01/10 13:01:49;;;;;;;2.17;0.60;;;12.50;99.90;;;;;;5036439;28;20032;-77
2022/01/10 13:04:24;;;;;;;1.17;0.50;;;12.30;99.90;;;;;;5054204;28;20056;-77
2022/01/10 13:06:54;;;;;;;0.80;0.40;;;12.20;99.90;;;;;;5054804;28;20506;-78
2022/01/10 13:09:22;;;;;;;1.02;0.30;;;12.00;99.90;;;;;;5054868;28;20025;-77